Time;durP1;ratioP1;P1;durP2;ratioP2;P2;SDS_P1;SDS_P2;PMS_P1;PMS_P2;Temp;Humidity;BMP_temperature;BMP_pressure;BME280_temperature;BME280_humidity;BME280_pressure;Samples;Min_cycle;Max_cycle;Signal;HPM_P1;HPM_P2
2023/06/28 00:00:23;;;;;;;5.93;3.77;;;;;;;12.85;100.00;96367.97;7397172;19;20408;-72
2023/06/28 00:02:55;;;;;;;3.67;3.37;;;;;;;12.76;100.00;96355.97;7400759;19;20373;-72
2023/06/28 00:05:22;;;;;;;3.70;3.30;;;;;;;12.64;100.00;96346.16;7401379;19;20765;-72
2023/06/28 00:07:49;;;;;;;5.73;3.60;;;;;;;12.56;100.00;96313.41;7399610;19;20396;-72
2023/06/28 00:10:16;;;;;;;3.17;2.97;;;;;;;12.86;100.00;96334.25;7400265;19;20808;-72
2023/06/28 00:12:43;;;;;;;4.47;3.47;;;;;;;12.82;100.00;96312.94;7398222;19;20376;-72
2023/06/28 00:15:10;;;;;;;3.87;3.57;;;;;;;13.05;100.00;96339.66;7400154;19;20366;-72
2023/06/28 00:17:37;;;;;;;5.67;3.30;;;;;;;12.99;100.00;96333.06;7400452;19;20348;-72
2023/06/28 00:20:07;;;;;;;4.10;3.13;;;;;;;12.86;100.00;96331.59;7399019;19;20444;-72
2023/06/28 00:22:34;;;;;;;3.60;3.30;;;;;;;12.81;100.00;96355.72;7398981;19;20373;-72
2023/06/28 00:25:04;;;;;;;6.23;4.27;;;;;;;12.35;100.00;96347.28;7402261;19;20702;-72
2023/06/28 00:27:31;;;;;;;4.03;3.27;;;;;;;12.27;100.00;96346.31;7399284;19;20384;-72
2023/06/28 00:29:59;;;;;;;3.70;3.40;;;;;;;12.16;100.00;96328.56;7400424;19;20428;-72
2023/06/28 00:32:27;;;;;;;6.47;4.00;;;;;;;12.30;100.00;96327.09;7398781;19;20386;-72
2023/06/28 00:34:55;;;;;;;5.53;3.47;;;;;;;12.61;100.00;96328.28;7400700;19;20400;-72
2023/06/28 00:37:22;;;;;;;4.70;3.47;;;;;;;12.73;100.00;96336.19;7399040;19;20445;-72
2023/06/28 00:39:49;;;;;;;4.03;3.30;;;;;;;12.83;100.00;96343.66;7396086;19;20433;-72
2023/06/28 00:42:16;;;;;;;2.93;2.73;;;;;;;12.62;100.00;96327.94;7407389;19;20732;-73
2023/06/28 00:44:43;;;;;;;5.13;3.47;;;;;;;12.48;100.00;96337.41;7396969;19;20368;-73
2023/06/28 00:47:10;;;;;;;4.00;3.70;;;;;;;12.25;100.00;96327.31;7395833;19;20400;-73
2023/06/28 00:49:38;;;;;;;4.20;3.80;;;;;;;12.11;100.00;96327.69;7395903;19;20987;-73
2023/06/28 00:52:06;;;;;;;3.93;3.63;;;;;;;12.27;100.00;96327.75;7398890;19;20671;-73
2023/06/28 00:54:33;;;;;;;6.87;3.90;;;;;;;12.47;100.00;96354.44;7395091;19;20750;-73
2023/06/28 00:57:01;;;;;;;3.43;3.13;;;;;;;12.33;100.00;96357.44;7398361;19;20762;-73
2023/06/28 00:59:29;;;;;;;4.07;3.67;;;;;;;12.27;100.00;96343.66;7395801;19;20424;-73
2023/06/28 01:01:56;;;;;;;3.73;3.43;;;;;;;12.33;100.00;96360.88;7395049;19;20731;-73
2023/06/28 01:04:23;;;;;;;3.93;3.47;;;;;;;12.37;100.00;96356.44;7396999;19;20421;-73
2023/06/28 01:06:54;;;;;;;5.83;3.20;;;;;;;12.19;100.00;96379.03;7398315;19;20376;-73
2023/06/28 01:09:23;;;;;;;8.50;4.67;;;;;;;12.16;100.00;96341.81;7396120;19;20421;-72
2023/06/28 01:11:52;;;;;;;3.60;3.07;;;;;;;12.12;100.00;96345.13;7398202;19;20397;-72
2023/06/28 01:14:21;;;;;;;3.37;3.07;;;;;;;12.51;100.00;96377.28;7396114;19;20385;-72
2023/06/28 01:16:54;;;;;;;4.00;3.70;;;;;;;12.48;100.00;96383.25;7399995;19;20341;-73
2023/06/28 01:19:26;;;;;;;4.00;3.60;;;;;;;12.29;100.00;96383.88;7396707;19;20512;-73
2023/06/28 01:22:01;;;;;;;9.13;3.53;;;;;;;12.12;100.00;96376.16;7399451;19;20373;-73
2023/06/28 01:24:29;;;;;;;3.90;3.47;;;;;;;12.16;100.00;96376.28;7397208;19;20403;-73
2023/06/28 01:26:58;;;;;;;4.33;3.80;;;;;;;12.08;100.00;96377.94;7396382;19;20377;-73
2023/06/28 01:29:26;;;;;;;5.70;3.93;;;;;;;12.00;100.00;96373.53;7396884;19;20442;-73
2023/06/28 01:31:55;;;;;;;4.00;3.70;;;;;;;12.11;100.00;96379.91;7396157;19;20408;-73
2023/06/28 01:34:24;;;;;;;3.60;3.00;;;;;;;12.21;100.00;96368.84;7392700;19;20352;-73
2023/06/28 01:36:54;;;;;;;4.00;3.70;;;;;;;12.27;100.00;96394.00;7396083;19;20377;-73
2023/06/28 01:39:22;;;;;;;4.17;3.77;;;;;;;12.35;100.00;96369.25;7393947;19;20439;-72
2023/06/28 01:41:51;;;;;;;3.67;3.40;;;;;;;12.09;100.00;96387.44;7396065;19;20453;-73
2023/06/28 01:44:18;;;;;;;3.27;3.03;;;;;;;11.82;100.00;96365.06;7397251;19;21029;-73
2023/06/28 01:46:47;;;;;;;4.70;3.53;;;;;;;11.60;100.00;96384.00;7396549;19;20456;-73
2023/06/28 01:49:14;;;;;;;4.07;3.40;;;;;;;11.26;100.00;96354.22;7396873;19;20437;-73
2023/06/28 01:51:41;;;;;;;8.30;3.73;;;;;;;11.38;100.00;96372.75;7395484;19;20372;-73
2023/06/28 01:54:08;;;;;;;4.17;3.87;;;;;;;11.53;100.00;96392.50;7396287;19;20440;-72
2023/06/28 01:56:35;;;;;;;4.43;3.97;;;;;;;11.45;100.00;96380.13;7395812;19;20396;-72
2023/06/28 01:59:02;;;;;;;4.27;3.87;;;;;;;11.51;100.00;96365.59;7396533;19;20443;-72
2023/06/28 02:01:29;;;;;;;4.00;3.70;;;;;;;11.72;100.00;96392.72;7397233;19;20416;-72
2023/06/28 02:03:56;;;;;;;4.77;3.57;;;;;;;11.57;100.00;96363.50;7396622;19;20949;-72
2023/06/28 02:06:23;;;;;;;4.80;3.73;;;;;;;11.42;100.00;96357.75;7395840;19;20365;-72
2023/06/28 02:08:50;;;;;;;4.53;3.90;;;;;;;11.46;100.00;96331.38;7396761;19;20405;-72
2023/06/28 02:11:17;;;;;;;6.00;3.90;;;;;;;11.90;100.00;96377.41;7397370;19;20754;-72
2023/06/28 02:13:44;;;;;;;3.70;3.40;;;;;;;11.80;100.00;96391.13;7395728;19;20924;-72
2023/06/28 02:16:13;;;;;;;9.83;4.27;;;;;;;11.57;100.00;96353.66;7395266;19;20704;-72
2023/06/28 02:18:42;;;;;;;7.27;4.00;;;;;;;11.31;100.00;96355.88;7396902;19;20481;-72
2023/06/28 02:21:09;;;;;;;5.33;4.40;;;;;;;11.47;100.00;96373.41;7396234;19;20380;-72
2023/06/28 02:23:36;;;;;;;5.40;4.20;;;;;;;11.27;100.00;96369.00;7395886;19;20948;-72
2023/06/28 02:26:03;;;;;;;5.27;3.67;;;;;;;11.25;100.00;96395.00;7404191;19;20411;-72
2023/06/28 02:28:30;;;;;;;5.53;3.97;;;;;;;11.17;100.00;96387.94;7402044;19;20400;-72
2023/06/28 02:30:57;;;;;;;5.63;4.37;;;;;;;11.28;100.00;96394.34;7402877;19;20915;-72
2023/06/28 02:33:24;;;;;;;10.43;4.90;;;;;;;11.30;100.00;96399.31;7400699;19;20756;-72
2023/06/28 02:35:51;;;;;;;4.93;4.43;;;;;;;11.18;100.00;96377.00;7402990;19;20376;-72
2023/06/28 02:38:17;;;;;;;4.27;3.90;;;;;;;11.07;100.00;96399.69;7401111;19;20361;-72
2023/06/28 02:40:44;;;;;;;7.90;4.83;;;;;;;11.15;100.00;96406.00;7399929;19;20439;-72
2023/06/28 02:43:11;;;;;;;6.17;5.43;;;;;;;10.98;100.00;96401.69;7401106;19;20361;-72
2023/06/28 02:45:38;;;;;;;13.30;8.43;;;;;;;10.73;100.00;96390.25;7402514;19;20419;-72
2023/06/28 02:48:05;;;;;;;9.17;8.10;;;;;;;10.80;100.00;96413.50;7402373;19;20353;-72
2023/06/28 02:50:32;;;;;;;8.30;7.57;;;;;;;10.54;100.00;96385.41;7399959;19;20428;-72
2023/06/28 02:53:05;;;;;;;9.00;6.40;;;;;;;10.33;100.00;96387.31;7400959;19;20380;-72
2023/06/28 02:55:32;;;;;;;10.70;7.87;;;;;;;10.26;100.00;96397.59;7402753;19;20372;-72
2023/06/28 02:58:03;;;;;;;15.30;9.00;;;;;;;10.25;100.00;96417.97;7401353;19;20376;-72
2023/06/28 03:00:30;;;;;;;12.57;9.50;;;;;;;10.58;100.00;96418.06;7399989;19;20438;-72
2023/06/28 03:02:57;;;;;;;19.20;11.60;;;;;;;10.53;100.00;96404.25;7402291;19;20404;-72
2023/06/28 03:05:24;;;;;;;14.57;11.83;;;;;;;10.45;100.00;96405.88;7402566;19;20368;-72
2023/06/28 03:07:51;;;;;;;15.57;11.27;;;;;;;10.50;100.00;96440.03;7401102;19;20745;-72
2023/06/28 03:10:18;;;;;;;9.37;7.70;;;;;;;9.90;100.00;96401.53;7400564;19;20444;-72
2023/06/28 03:12:46;;;;;;;9.10;7.83;;;;;;;9.97;100.00;96416.88;7402452;19;20389;-72
2023/06/28 03:15:16;;;;;;;7.10;5.67;;;;;;;9.89;100.00;96378.88;7404172;19;20385;-72
2023/06/28 03:17:43;;;;;;;6.00;5.47;;;;;;;10.59;100.00;96438.09;7403374;19;20378;-72
2023/06/28 03:20:12;;;;;;;5.03;4.63;;;;;;;10.72;100.00;96423.06;7402153;19;20434;-72
2023/06/28 03:22:39;;;;;;;3.47;3.23;;;;;;;10.61;100.00;96427.22;7402949;19;20447;-72
2023/06/28 03:25:07;;;;;;;4.23;3.70;;;;;;;10.47;100.00;96422.19;7404165;19;20388;-72
2023/06/28 03:27:33;;;;;;;4.73;3.37;;;;;;;10.19;100.00;96415.81;7403786;19;20415;-72
2023/06/28 03:30:02;;;;;;;3.80;2.83;;;;;;;10.10;100.00;96426.44;7403363;19;20438;-72
2023/06/28 03:32:29;;;;;;;3.37;3.17;;;;;;;9.82;100.00;96405.00;7402727;19;20372;-72
2023/06/28 03:34:57;;;;;;;2.97;2.77;;;;;;;10.15;100.00;96418.34;7397012;19;20380;-72
2023/06/28 03:37:24;;;;;;;4.43;4.03;;;;;;;10.57;100.00;96437.66;7401139;19;20780;-72
2023/06/28 03:39:51;;;;;;;2.90;2.70;;;;;;;10.49;100.00;96413.91;7397887;19;20431;-72
2023/06/28 03:42:18;;;;;;;3.50;3.30;;;;;;;10.70;100.00;96419.22;7401096;19;20509;-72
2023/06/28 03:44:45;;;;;;;3.77;3.47;;;;;;;10.42;100.00;96406.53;7399567;19;20789;-72
2023/06/28 03:47:13;;;;;;;3.33;3.13;;;;;;;10.68;100.00;96421.38;7401590;19;20377;-72
2023/06/28 03:49:40;;;;;;;3.53;3.23;;;;;;;11.02;100.00;96436.97;7397970;19;20433;-72
2023/06/28 03:52:07;;;;;;;3.67;3.40;;;;;;;11.02;100.00;96421.09;7401366;19;20369;-72
2023/06/28 03:54:34;;;;;;;2.80;2.60;;;;;;;10.71;100.00;96420.75;7397856;19;20428;-72
2023/06/28 03:57:01;;;;;;;3.03;2.90;;;;;;;11.04;100.00;96442.69;7402217;19;20349;-72
2023/06/28 03:59:28;;;;;;;5.50;3.00;;;;;;;11.07;100.00;96417.44;7397539;19;20431;-72
2023/06/28 04:01:55;;;;;;;4.13;3.70;;;;;;;10.56;100.00;96411.53;7400208;19;20935;-72
2023/06/28 04:04:22;;;;;;;3.27;3.07;;;;;;;10.86;100.00;96426.22;7398798;19;20466;-72
2023/06/28 04:06:50;;;;;;;4.20;3.90;;;;;;;11.15;100.00;96440.41;7400333;19;20378;-72
2023/06/28 04:09:17;;;;;;;4.93;4.53;;;;;;;11.46;100.00;96455.81;7398056;19;20473;-72
2023/06/28 04:11:44;;;;;;;4.03;3.70;;;;;;;11.27;100.00;96452.91;7400374;19;20380;-72
2023/06/28 04:14:10;;;;;;;4.07;3.67;;;;;;;11.21;100.00;96444.38;7397474;19;20345;-72
2023/06/28 04:16:37;;;;;;;4.00;3.70;;;;;;;10.69;100.00;96407.09;7399853;19;20388;-72
2023/06/28 04:19:06;;;;;;;4.57;4.27;;;;;;;11.14;100.00;96430.94;7397848;19;20492;-72
2023/06/28 04:21:33;;;;;;;6.70;4.80;;;;;;;11.26;100.00;96454.78;7401908;19;21360;-72
2023/06/28 04:24:00;;;;;;;4.73;4.33;;;;;;;11.27;100.00;96445.75;7398472;19;20896;-72
2023/06/28 04:26:27;;;;;;;5.23;3.90;;;;;;;11.62;100.00;96467.34;7400024;19;20400;-72
2023/06/28 04:28:54;;;;;;;4.07;3.63;;;;;;;11.65;100.00;96464.03;7398398;19;20392;-72
2023/06/28 04:31:21;;;;;;;5.70;3.97;;;;;;;11.53;100.00;96458.72;7400290;19;20400;-72
2023/06/28 04:33:49;;;;;;;4.37;4.07;;;;;;;11.44;100.00;96440.25;7398007;19;20368;-72
2023/06/28 04:36:21;;;;;;;7.63;4.10;;;;;;;11.70;100.00;96469.09;7400066;19;20432;-72
2023/06/28 04:38:52;;;;;;;4.87;4.40;;;;;;;11.70;100.00;96474.41;7395832;19;20413;-72
2023/06/28 04:41:24;;;;;;;4.80;4.40;;;;;;;11.07;100.00;96446.56;7400083;19;20389;-72
2023/06/28 04:43:55;;;;;;;5.17;4.77;;;;;;;11.09;100.00;96445.16;7398481;19;20373;-72
2023/06/28 04:46:23;;;;;;;4.90;4.50;;;;;;;11.28;100.00;96451.81;7398668;19;20745;-72
2023/06/28 04:48:50;;;;;;;6.60;4.90;;;;;;;11.18;100.00;96445.06;7398123;19;20409;-72
2023/06/28 04:51:18;;;;;;;4.13;3.83;;;;;;;11.80;100.00;96468.72;7396632;19;20948;-72
2023/06/28 04:53:49;;;;;;;4.20;3.90;;;;;;;11.87;100.00;96446.94;7397883;19;20357;-73
2023/06/28 04:56:16;;;;;;;4.87;4.30;;;;;;;12.03;100.00;96476.25;7398098;19;20350;-73
2023/06/28 04:58:43;;;;;;;4.07;3.77;;;;;;;11.95;100.00;96477.09;7397708;19;20432;-72
2023/06/28 05:01:10;;;;;;;4.60;4.30;;;;;;;12.05;100.00;96452.81;7398322;19;20362;-72
2023/06/28 05:03:41;;;;;;;4.57;4.10;;;;;;;12.43;100.00;96473.66;7399704;19;20345;-73
2023/06/28 05:06:09;;;;;;;4.97;4.57;;;;;;;12.49;100.00;96468.91;7396875;19;20372;-72
2023/06/28 05:08:36;;;;;;;6.37;4.00;;;;;;;12.68;100.00;96482.31;7397784;19;20384;-72
2023/06/28 05:11:03;;;;;;;4.20;3.90;;;;;;;12.51;100.00;96479.94;7397102;19;20393;-72
2023/06/28 05:13:30;;;;;;;4.50;4.10;;;;;;;12.61;100.00;96455.59;7403305;19;20370;-71
2023/06/28 05:15:57;;;;;;;4.40;4.10;;;;;;;12.95;100.00;96481.63;7406551;19;20365;-72
2023/06/28 05:18:24;;;;;;;4.57;4.17;;;;;;;12.59;100.00;96471.09;7398302;19;20372;-73
2023/06/28 05:20:51;;;;;;;6.70;4.77;;;;;;;12.55;100.00;96472.84;7397143;19;20374;-72
2023/06/28 05:23:22;;;;;;;5.43;4.43;;;;;;;12.54;100.00;96477.38;7395423;19;20354;-72
2023/06/28 05:25:49;;;;;;;5.20;4.70;;;;;;;12.38;100.00;96452.66;7398477;19;20368;-73
2023/06/28 05:28:16;;;;;;;6.07;5.47;;;;;;;12.38;100.00;96452.66;7399766;19;20733;-73
2023/06/28 05:30:43;;;;;;;8.13;6.47;;;;;;;12.38;100.00;96460.63;7396615;19;20413;-72
2023/06/28 05:33:11;;;;;;;8.77;5.50;;;;;;;12.10;100.00;96423.44;7398188;19;20392;-73
2023/06/28 05:35:38;;;;;;;6.70;6.10;;;;;;;12.75;100.00;96463.19;7396624;19;20907;-73
2023/06/28 05:38:06;;;;;;;6.70;6.20;;;;;;;12.99;100.00;96469.19;7398661;19;20386;-73
2023/06/28 05:40:33;;;;;;;6.30;5.70;;;;;;;13.21;100.00;96475.88;7395571;19;20428;-73
2023/06/28 05:43:01;;;;;;;7.93;6.17;;;;;;;13.21;100.00;96481.19;7400904;19;20371;-72
2023/06/28 05:45:29;;;;;;;6.40;5.90;;;;;;;13.01;100.00;96461.66;7409957;19;20413;-72
2023/06/28 05:47:58;;;;;;;6.80;6.20;;;;;;;13.20;100.00;96470.91;7404017;19;20488;-72
2023/06/28 05:50:26;;;;;;;6.50;5.90;;;;;;;13.20;100.00;96474.31;7403278;19;20858;-72
2023/06/28 05:52:53;;;;;;;7.10;6.40;;;;;;;13.49;100.00;96449.28;7396464;19;20408;-72
2023/06/28 05:55:20;;;;;;;6.90;6.20;;;;;;;13.90;100.00;96457.88;7396147;19;20369;-72
2023/06/28 05:57:48;;;;;;;5.57;5.07;;;;;;;13.51;100.00;96460.34;7395797;19;20365;-73
2023/06/28 06:00:15;;;;;;;5.50;5.00;;;;;;;13.46;100.00;96483.72;7400025;19;20430;-73
2023/06/28 06:02:42;;;;;;;4.60;4.03;;;;;;;13.75;100.00;96478.00;7420918;19;20385;-73
2023/06/28 06:05:13;;;;;;;7.90;3.80;;;;;;;13.83;100.00;96473.66;7429467;19;20357;-73
2023/06/28 06:07:40;;;;;;;4.60;4.00;;;;;;;13.73;100.00;96468.84;7429079;19;20341;-73
2023/06/28 06:10:09;;;;;;;6.20;4.33;;;;;;;13.55;100.00;96468.41;7429870;19;20414;-73
2023/06/28 06:12:37;;;;;;;5.80;4.50;;;;;;;14.04;100.00;96484.78;7429397;19;20361;-73
2023/06/28 06:15:05;;;;;;;4.70;4.30;;;;;;;13.57;100.00;96482.88;7429573;19;20390;-73
2023/06/28 06:17:32;;;;;;;4.13;3.57;;;;;;;13.66;100.00;96455.38;7429229;19;20368;-73
2023/06/28 06:20:00;;;;;;;5.00;3.80;;;;;;;14.34;100.00;96487.75;7414499;19;20809;-73
2023/06/28 06:22:28;;;;;;;3.73;3.50;;;;;;;14.59;100.00;96490.22;7401819;19;20348;-73
2023/06/28 06:24:55;;;;;;;4.60;3.67;;;;;;;14.94;100.00;96490.19;7399074;19;20383;-72
2023/06/28 06:27:22;;;;;;;12.13;4.00;;;;;;;14.96;100.00;96496.72;7396248;19;20357;-72
2023/06/28 06:29:49;;;;;;;5.27;4.30;;;;;;;15.36;100.00;96484.94;7396061;19;20962;-72
2023/06/28 06:32:16;;;;;;;3.57;3.27;;;;;;;15.20;100.00;96485.00;7397857;19;20396;-74
2023/06/28 06:34:44;;;;;;;6.73;3.80;;;;;;;15.51;100.00;96494.72;7397264;19;20397;-74
2023/06/28 06:37:12;;;;;;;5.60;4.00;;;;;;;15.59;100.00;96504.41;7395628;19;20379;-74
2023/06/28 06:39:40;;;;;;;3.80;3.40;;;;;;;15.93;100.00;96492.03;7396177;19;20426;-73
2023/06/28 06:42:08;;;;;;;4.13;3.13;;;;;;;15.28;100.00;96491.22;7395611;19;20743;-73
2023/06/28 06:44:35;;;;;;;3.33;3.13;;;;;;;15.21;100.00;96475.09;7396860;19;20369;-72
2023/06/28 06:47:03;;;;;;;4.80;3.90;;;;;;;14.99;100.00;96484.59;7395982;19;20386;-72
2023/06/28 06:49:30;;;;;;;4.70;4.20;;;;;;;15.14;100.00;96481.09;7395984;19;20433;-73
2023/06/28 06:51:58;;;;;;;4.10;3.80;;;;;;;15.26;100.00;96509.47;7395407;19;20381;-72
2023/06/28 06:54:25;;;;;;;4.10;3.70;;;;;;;16.10;100.00;96506.78;7393025;19;20916;-72
2023/06/28 06:56:53;;;;;;;3.33;3.10;;;;;;;16.08;100.00;96503.69;7396789;19;20930;-74
2023/06/28 06:59:23;;;;;;;3.57;3.30;;;;;;;16.98;100.00;96511.88;7393219;19;20429;-74
2023/06/28 07:01:54;;;;;;;4.10;3.80;;;;;;;16.16;100.00;96491.22;7396368;19;20445;-74
2023/06/28 07:04:22;;;;;;;3.40;3.20;;;;;;;16.60;100.00;96502.19;7394347;19;20367;-74
2023/06/28 07:06:49;;;;;;;4.00;3.80;;;;;;;16.66;100.00;96513.31;7396199;19;20362;-74
2023/06/28 07:09:17;;;;;;;7.30;3.63;;;;;;;17.12;100.00;96513.94;7395023;19;20409;-74
2023/06/28 07:11:45;;;;;;;3.93;3.23;;;;;;;17.35;100.00;96513.81;7403443;19;20369;-74
2023/06/28 07:14:12;;;;;;;4.27;3.87;;;;;;;17.48;100.00;96519.69;7400811;19;20955;-73
2023/06/28 07:16:44;;;;;;;3.23;3.03;;;;;;;17.21;100.00;96469.00;7402446;19;20411;-73
2023/06/28 07:19:12;;;;;;;3.70;3.40;;;;;;;17.00;100.00;96503.50;7399745;19;20434;-73
2023/06/28 07:21:40;;;;;;;7.97;3.17;;;;;;;16.08;100.00;96468.25;7402626;19;20800;-72
2023/06/28 07:24:08;;;;;;;3.97;3.67;;;;;;;16.41;100.00;96486.25;7400775;19;20400;-72
2023/06/28 07:26:35;;;;;;;3.73;2.83;;;;;;;16.88;100.00;96479.69;7402944;19;20383;-73
2023/06/28 07:29:02;;;;;;;3.03;2.83;;;;;;;17.14;100.00;96504.44;7414664;19;20407;-72
2023/06/28 07:31:29;;;;;;;2.97;2.80;;;;;;;17.41;100.00;96493.66;7423352;19;20406;-72
2023/06/28 07:33:57;;;;;;;4.50;4.10;;;;;;;17.35;100.00;96481.75;7424775;19;20354;-72
2023/06/28 07:36:24;;;;;;;5.13;4.07;;;;;;;17.91;100.00;96502.19;7411453;19;20720;-74
2023/06/28 07:38:51;;;;;;;4.60;3.20;;;;;;;18.10;100.00;96488.56;7399578;19;20428;-74
2023/06/28 07:41:19;;;;;;;3.37;3.17;;;;;;;17.74;100.00;96511.56;7404352;19;20354;-74
2023/06/28 07:43:45;;;;;;;3.63;3.40;;;;;;;17.78;100.00;96500.94;7401529;19;20388;-74
2023/06/28 07:46:12;;;;;;;4.70;3.70;;;;;;;17.03;100.00;96500.09;7403210;19;20925;-74
2023/06/28 07:48:39;;;;;;;3.50;3.30;;;;;;;16.37;100.00;96488.88;7402399;19;20379;-74
2023/06/28 07:51:06;;;;;;;4.10;3.30;;;;;;;17.33;100.00;96524.88;7402385;19;20444;-74
2023/06/28 07:53:33;;;;;;;5.70;3.27;;;;;;;17.79;100.00;96508.59;7401232;19;20387;-73
2023/06/28 07:56:01;;;;;;;3.30;2.97;;;;;;;17.91;100.00;96512.91;7400126;19;20424;-73
2023/06/28 07:58:28;;;;;;;3.77;3.00;;;;;;;17.98;100.00;96518.28;7401788;19;20798;-72
2023/06/28 08:00:55;;;;;;;4.47;3.33;;;;;;;18.24;100.00;96517.34;7402068;19;20386;-72
2023/06/28 08:03:22;;;;;;;3.37;3.07;;;;;;;18.72;100.00;96506.63;7400098;19;20356;-72
2023/06/28 08:05:49;;;;;;;6.33;2.93;;;;;;;19.38;100.00;96507.28;7401719;19;20395;-72
2023/06/28 08:08:16;;;;;;;3.23;3.03;;;;;;;17.72;100.00;96514.63;7400602;19;20418;-72
2023/06/28 08:10:43;;;;;;;6.50;3.03;;;;;;;17.98;100.00;96507.59;7399045;19;20458;-72
2023/06/28 08:13:10;;;;;;;4.37;3.90;;;;;;;18.69;100.00;96510.78;7399803;19;20373;-72
2023/06/28 08:15:38;;;;;;;7.03;3.50;;;;;;;18.04;100.00;96498.09;7399976;19;20737;-72
2023/06/28 08:18:09;;;;;;;4.67;3.40;;;;;;;18.55;100.00;96513.34;7400269;19;20391;-72
2023/06/28 08:20:36;;;;;;;4.50;3.60;;;;;;;19.07;100.00;96520.19;7394906;19;20435;-72
2023/06/28 08:23:05;;;;;;;6.57;3.60;;;;;;;18.97;100.00;96517.47;7399311;19;20919;-72
2023/06/28 08:25:32;;;;;;;7.10;3.40;;;;;;;18.39;100.00;96496.81;7400002;19;20412;-73
2023/06/28 08:27:59;;;;;;;3.70;3.20;;;;;;;18.50;100.00;96492.31;7400007;19;20983;-73
2023/06/28 08:30:26;;;;;;;4.00;3.40;;;;;;;17.51;100.00;96487.66;7396112;19;20430;-73
2023/06/28 08:32:53;;;;;;;8.40;3.57;;;;;;;18.58;100.00;96489.31;7399878;19;20367;-73
2023/06/28 08:35:20;;;;;;;3.47;3.13;;;;;;;19.37;100.00;96501.16;7397420;19;20370;-73
2023/06/28 08:37:46;;;;;;;4.33;3.37;;;;;;;19.24;100.00;96515.28;7400001;19;20374;-73
2023/06/28 08:40:13;;;;;;;2.87;2.57;;;;;;;18.40;100.00;96512.50;7396447;19;20574;-73
2023/06/28 08:42:44;;;;;;;3.43;2.73;;;;;;;18.51;100.00;96507.22;7399213;19;20997;-73
2023/06/28 08:45:16;;;;;;;4.03;2.50;;;;;;;18.98;100.00;96490.28;7396483;19;20382;-73
2023/06/28 08:47:44;;;;;;;3.53;2.50;;;;;;;17.75;100.00;96497.06;7401327;19;20352;-73
2023/06/28 08:50:12;;;;;;;5.20;3.13;;;;;;;17.22;100.00;96445.72;7396511;19;20438;-73
2023/06/28 08:52:41;;;;;;;4.37;2.87;;;;;;;17.31;100.00;96505.75;7399351;19;20399;-73
2023/06/28 08:55:09;;;;;;;5.90;3.07;;;;;;;17.43;100.00;96491.38;7399136;19;20352;-73
2023/06/28 08:57:39;;;;;;;3.30;3.00;;;;;;;17.65;100.00;96497.72;7401324;19;20721;-73
2023/06/28 09:00:10;;;;;;;4.30;3.77;;;;;;;18.00;100.00;96494.59;7396909;19;20515;-73
2023/06/28 09:02:40;;;;;;;3.77;2.33;;;;;;;17.35;100.00;96493.19;7397048;19;20387;-73
2023/06/28 09:05:09;;;;;;;3.90;2.73;;;;;;;17.04;100.00;96496.28;7398822;19;20375;-72
2023/06/28 09:07:39;;;;;;;5.03;2.73;;;;;;;16.60;100.00;96496.06;7396689;19;20437;-71
2023/06/28 09:10:08;;;;;;;4.00;3.60;;;;;;;17.44;100.00;96495.59;7397121;19;20417;-72
2023/06/28 09:12:36;;;;;;;5.00;2.67;;;;;;;18.14;100.00;96504.66;7396686;19;20889;-71
2023/06/28 09:15:03;;;;;;;5.80;2.47;;;;;;;18.50;100.00;96495.75;7397857;19;20453;-72
2023/06/28 09:17:30;;;;;;;4.23;3.10;;;;;;;19.01;100.00;96481.50;7396577;19;20398;-72
2023/06/28 09:20:13;;;;;;;5.40;2.50;;;;;;;19.93;100.00;96510.50;7396998;19;20427;-72
2023/06/28 09:22:40;;;;;;;6.07;2.67;;;;;;;20.40;100.00;96489.75;7396100;19;20407;-72
2023/06/28 09:25:10;;;;;;;7.93;2.67;;;;;;;20.67;100.00;96509.69;7399035;19;20997;-72
2023/06/28 09:27:37;;;;;;;8.63;3.00;;;;;;;19.53;100.00;96482.03;7397425;19;20411;-72
2023/06/28 09:30:22;;;;;;;3.83;2.17;;;;;;;19.07;100.00;96492.59;7399785;19;20448;-72
2023/06/28 09:32:50;;;;;;;3.60;2.30;;;;;;;18.83;100.00;96492.16;7397190;19;20379;-71
2023/06/28 09:35:18;;;;;;;3.07;2.70;;;;;;;18.73;100.00;96463.38;7397786;19;20373;-71
2023/06/28 09:37:50;;;;;;;2.40;2.17;;;;;;;18.58;100.00;96485.84;7399305;19;20838;-71
2023/06/28 09:40:17;;;;;;;2.67;2.47;;;;;;;18.54;100.00;96463.63;7394930;19;20406;-71
2023/06/28 09:42:49;;;;;;;2.93;2.70;;;;;;;18.75;100.00;96460.31;7399272;19;20399;-71
2023/06/28 09:45:33;;;;;;;4.80;4.20;;;;;;;19.09;100.00;96493.00;7396315;19;20375;-72
2023/06/28 09:48:01;;;;;;;3.57;2.50;;;;;;;19.05;100.00;96486.88;7395739;19;20415;-71
2023/06/28 09:50:42;;;;;;;2.23;2.03;;;;;;;19.70;96.05;96488.59;7393681;19;20396;-71
2023/06/28 09:53:15;;;;;;;3.03;2.63;;;;;;;20.17;100.00;96475.97;7395854;19;20365;-71
2023/06/28 09:55:44;;;;;;;4.30;2.00;;;;;;;19.51;97.51;96488.94;7396684;19;20922;-71
2023/06/28 09:58:17;;;;;;;2.23;1.80;;;;;;;19.00;100.00;96479.97;7396004;19;21035;-72
2023/06/28 10:00:46;;;;;;;5.87;2.30;;;;;;;20.00;87.81;96486.31;7395961;19;20435;-72
2023/06/28 10:03:15;;;;;;;2.60;2.20;;;;;;;19.52;95.99;96477.81;7396414;19;20745;-72
2023/06/28 10:05:44;;;;;;;5.33;2.10;;;;;;;19.12;90.18;96476.19;7397919;19;20480;-72
2023/06/28 10:08:16;;;;;;;3.17;1.83;;;;;;;18.72;99.64;96477.16;7398179;19;20443;-72
2023/06/28 10:10:46;;;;;;;4.33;2.20;;;;;;;18.67;98.29;96477.50;7393201;19;20443;-72
2023/06/28 10:13:21;;;;;;;3.20;1.90;;;;;;;18.47;97.97;96485.03;7396127;19;20819;-72
2023/06/28 10:15:58;;;;;;;3.67;2.30;;;;;;;18.23;100.00;96481.78;7394350;19;20388;-72
2023/06/28 10:18:25;;;;;;;2.33;2.13;;;;;;;18.16;100.00;96464.91;7396701;19;21022;-72
2023/06/28 10:20:53;;;;;;;4.63;2.60;;;;;;;18.30;100.00;96479.19;7395441;19;20394;-71
2023/06/28 10:23:24;;;;;;;2.30;2.10;;;;;;;18.46;97.88;96462.81;7397027;19;20401;-71
2023/06/28 10:25:53;;;;;;;3.13;2.27;;;;;;;19.24;91.09;96469.72;7397930;19;20389;-71
2023/06/28 10:28:21;;;;;;;2.30;1.80;;;;;;;19.77;82.63;96486.72;7397515;19;20391;-71
2023/06/28 10:30:49;;;;;;;2.90;1.90;;;;;;;20.40;84.28;96473.63;7393730;19;20412;-72
2023/06/28 10:33:17;;;;;;;5.47;2.30;;;;;;;20.30;81.96;96471.75;7397139;19;20411;-71
2023/06/28 10:35:44;;;;;;;6.13;2.77;;;;;;;20.20;80.77;96459.88;7396713;19;20427;-71
2023/06/28 10:38:12;;;;;;;2.50;1.90;;;;;;;20.32;78.68;96469.44;7393715;19;20886;-71
2023/06/28 10:40:39;;;;;;;4.50;2.30;;;;;;;20.75;76.87;96472.06;7393667;19;21022;-72
2023/06/28 10:43:19;;;;;;;2.13;1.80;;;;;;;20.69;77.30;96477.06;7393599;19;20392;-72
2023/06/28 10:45:49;;;;;;;1.77;1.60;;;;;;;20.92;75.94;96476.59;7403735;19;20348;-71
2023/06/28 10:48:21;;;;;;;2.40;1.93;;;;;;;20.57;73.71;96472.13;7401683;19;20390;-72
2023/06/28 10:50:49;;;;;;;3.50;2.30;;;;;;;20.05;76.50;96483.28;7400250;19;20428;-71
2023/06/28 10:53:21;;;;;;;1.83;1.73;;;;;;;20.31;77.78;96474.06;7403377;19;20351;-71
2023/06/28 10:56:03;;;;;;;2.93;2.00;;;;;;;20.70;83.29;96478.63;7402984;19;20404;-71
2023/06/28 10:58:38;;;;;;;3.83;2.37;;;;;;;21.33;76.91;96481.44;7402114;19;20890;-71
2023/06/28 11:01:11;;;;;;;5.60;1.87;;;;;;;21.12;75.02;96472.31;7401339;19;20371;-71
2023/06/28 11:03:42;;;;;;;2.03;1.93;;;;;;;21.44;69.40;96472.16;7404950;19;20361;-72
2023/06/28 11:06:11;;;;;;;2.43;2.00;;;;;;;22.06;73.70;96484.09;7401664;19;20496;-72
2023/06/28 11:08:43;;;;;;;2.43;2.23;;;;;;;21.10;72.84;96482.69;7402912;19;20368;-71
2023/06/28 11:11:21;;;;;;;3.00;1.90;;;;;;;20.42;72.97;96459.84;7402614;19;20706;-72
2023/06/28 11:13:48;;;;;;;2.80;1.77;;;;;;;19.54;73.01;96295.03;7405080;19;20451;-94
2023/06/28 11:16:40;;;;;;;2.53;1.83;;;;;;;20.43;72.94;96292.91;7415541;19;20416;-94
2023/06/28 11:19:18;;;;;;;3.13;2.10;;;;;;;21.22;67.24;96368.50;7417853;19;20388;-94
2023/06/28 11:21:58;;;;;;;2.17;1.97;;;;;;;20.11;73.53;96308.38;7415687;19;20379;-93
2023/06/28 11:24:42;;;;;;;4.33;2.40;;;;;;;19.72;76.14;96473.66;7420390;19;20406;-93
2023/06/28 11:27:17;;;;;;;6.20;2.13;;;;;;;18.63;80.37;96299.91;7419073;19;20375;-93
2023/06/28 11:29:58;;;;;;;1.93;1.50;;;;;;;19.65;78.34;96373.63;7422587;19;20357;-94
2023/06/28 11:36:34;;;;;;;3.33;2.30;;;;;;;19.93;78.48;96477.50;7421343;19;20419;-93